createdAt,value
2019-02-09T00:01:52.823Z,216.23
2019-02-09T00:04:24.422Z,214.97
2019-02-09T00:06:54.242Z,228.53
2019-02-09T00:09:24.351Z,243.33
2019-02-09T00:11:55.273Z,228.67
2019-02-09T00:14:24.761Z,233.23
2019-02-09T00:16:54.206Z,248.97
2019-02-09T00:19:23.919Z,246.57
2019-02-09T00:21:53.450Z,258.30
2019-02-09T00:24:23.158Z,247.30
2019-02-09T00:26:53.488Z,243.37
2019-02-09T00:29:22.849Z,234.43
2019-02-09T00:31:52.206Z,226.57
2019-02-09T00:34:21.531Z,221.97
2019-02-09T00:36:50.998Z,211.57
2019-02-09T00:39:20.549Z,218.57
2019-02-09T00:41:49.850Z,216.73
2019-02-09T00:44:19.466Z,221.37
2019-02-09T00:46:50.399Z,212.60
2019-02-09T00:49:20.596Z,225.23
2019-02-09T00:51:50.340Z,218.50
2019-02-09T00:54:19.805Z,209.80
2019-02-09T00:56:49.344Z,208.20
2019-02-09T00:59:18.647Z,209.80
2019-02-09T01:01:48.297Z,208.13
2019-02-09T01:04:17.978Z,206.53
2019-02-09T01:06:48.626Z,200.93
2019-02-09T01:09:17.915Z,203.77
2019-02-09T01:11:49.017Z,192.37
2019-02-09T01:14:18.260Z,189.80
2019-02-09T01:16:48.413Z,190.27
2019-02-09T01:19:17.737Z,188.23
2019-02-09T01:21:47.022Z,195.90
2019-02-09T01:24:16.841Z,187.70
2019-02-09T01:26:46.187Z,182.93
2019-02-09T01:29:16.251Z,188.83
2019-02-09T01:31:47.503Z,184.83
2019-02-09T01:34:18.215Z,183.83
2019-02-09T01:36:48.014Z,180.77
2019-02-09T01:39:17.794Z,179.00
2019-02-09T01:41:47.107Z,180.47
2019-02-09T01:44:18.431Z,180.37
2019-02-09T01:46:48.766Z,181.57
2019-02-09T01:49:19.575Z,190.50
2019-02-09T01:51:49.186Z,188.93
2019-02-09T01:54:19.226Z,171.97
2019-02-09T01:56:48.456Z,182.47
2019-02-09T01:59:18.357Z,188.43
2019-02-09T02:01:47.771Z,192.30
2019-02-09T02:04:18.967Z,194.03
2019-02-09T02:06:49.322Z,186.10
2019-02-09T02:09:18.939Z,184.47
2019-02-09T02:11:48.299Z,183.97
2019-02-09T02:14:17.702Z,175.20
2019-02-09T02:16:47.200Z,179.73
2019-02-09T02:19:16.692Z,177.80
2019-02-09T02:21:46.415Z,195.90
2019-02-09T02:24:18.122Z,185.40
2019-02-09T02:26:47.412Z,184.50
2019-02-09T02:29:16.815Z,179.43
2019-02-09T02:31:46.919Z,168.47
2019-02-09T02:34:16.219Z,189.13
2019-02-09T02:36:45.981Z,212.53
2019-02-09T02:39:15.751Z,212.07
2019-02-09T02:41:45.131Z,228.70
2019-02-09T02:44:16.927Z,217.30
2019-02-09T02:46:46.291Z,224.73
2019-02-09T02:49:15.925Z,224.80
2019-02-09T02:51:46.201Z,214.07
2019-02-09T02:54:15.511Z,216.13
2019-02-09T02:56:44.843Z,205.97
2019-02-09T02:59:14.140Z,209.57
2019-02-09T03:01:43.356Z,223.03
2019-02-09T03:04:15.255Z,210.00
2019-02-09T03:06:44.859Z,192.03
2019-02-09T03:09:16.831Z,193.67
2019-02-09T03:11:46.712Z,179.97
2019-02-09T03:14:17.296Z,180.17
2019-02-09T03:16:46.963Z,173.97
2019-02-09T03:19:16.503Z,180.70
2019-02-09T03:21:45.836Z,182.67
2019-02-09T03:24:15.234Z,178.73
2019-02-09T03:26:44.537Z,172.53
2019-02-09T03:29:14.104Z,156.43
2019-02-09T03:31:46.117Z,157.70
2019-02-09T03:34:15.535Z,154.60
2019-02-09T03:36:46.387Z,172.37
2019-02-09T03:39:15.673Z,158.60
2019-02-09T03:41:46.764Z,172.93
2019-02-09T03:44:16.634Z,172.40
2019-02-09T03:46:46.004Z,181.53
2019-02-09T03:49:17.711Z,180.07
2019-02-09T03:51:47.798Z,171.07
2019-02-09T03:54:17.976Z,181.77
2019-02-09T03:56:47.356Z,168.83
2019-02-09T03:59:17.567Z,172.90
2019-02-09T04:01:48.896Z,170.87
2019-02-09T04:04:18.346Z,168.27
2019-02-09T04:06:47.925Z,171.67
2019-02-09T04:09:17.210Z,171.23
2019-02-09T04:11:46.763Z,177.30
2019-02-09T04:14:16.748Z,170.70
2019-02-09T04:16:46.112Z,176.67
2019-02-09T04:19:15.704Z,181.67
2019-02-09T04:21:47.082Z,175.53
2019-02-09T04:24:16.470Z,175.80
2019-02-09T04:26:45.833Z,185.73
2019-02-09T04:29:15.131Z,186.20
2019-02-09T04:31:45.393Z,184.10
2019-02-09T04:34:14.799Z,191.07
2019-02-09T04:36:44.339Z,197.20
2019-02-09T04:39:14.140Z,193.43
2019-02-09T04:41:43.417Z,179.30
2019-02-09T04:44:12.742Z,184.77
2019-02-09T04:46:42.433Z,180.70
2019-02-09T04:49:14.799Z,184.23
2019-02-09T04:51:44.123Z,187.17
2019-02-09T04:54:13.444Z,185.20
2019-02-09T04:56:43.601Z,194.97
2019-02-09T04:59:12.872Z,180.40
2019-02-09T05:01:44.795Z,184.53
2019-02-09T05:04:14.183Z,183.47
2019-02-09T05:06:44.969Z,182.20
2019-02-09T05:09:14.404Z,185.00
2019-02-09T05:11:44.019Z,187.17
2019-02-09T05:14:14.184Z,179.83
2019-02-09T05:16:43.794Z,168.33
2019-02-09T05:19:13.099Z,171.30
2019-02-09T05:21:44.625Z,170.57
2019-02-09T05:24:14.246Z,177.10
2019-02-09T05:26:43.472Z,176.73
2019-02-09T05:29:12.863Z,163.90
2019-02-09T05:31:44.539Z,184.30
2019-02-09T05:34:13.835Z,163.50
2019-02-09T05:36:43.243Z,163.53
2019-02-09T05:39:12.540Z,166.83
2019-02-09T05:41:41.913Z,163.73
2019-02-09T05:44:12.918Z,160.40
2019-02-09T05:46:42.305Z,151.37
2019-02-09T05:49:11.658Z,162.57
2019-02-09T05:51:41.355Z,155.93
2019-02-09T05:54:10.720Z,149.90
2019-02-09T05:56:40.081Z,146.27
2019-02-09T05:59:09.372Z,150.23
2019-02-09T06:01:38.730Z,143.80
2019-02-09T06:04:08.360Z,145.20
2019-02-09T06:06:39.858Z,166.63
2019-02-09T06:09:09.557Z,158.27
2019-02-09T06:11:38.860Z,159.80
2019-02-09T06:14:08.336Z,150.53
2019-02-09T06:16:38.743Z,142.87
2019-02-09T06:19:08.146Z,155.27
2019-02-09T06:21:37.430Z,156.77
2019-02-09T06:24:06.839Z,165.30
2019-02-09T06:26:36.131Z,175.77
2019-02-09T06:29:05.743Z,191.80
2019-02-09T06:31:40.483Z,191.83
2019-02-09T06:34:06.086Z,176.53
2019-02-09T06:36:35.608Z,181.40
2019-02-09T06:39:08.073Z,181.23
2019-02-09T06:41:37.418Z,184.20
2019-02-09T06:44:07.015Z,169.77
2019-02-09T06:46:36.495Z,159.23
2019-02-09T06:49:05.885Z,162.87
2019-02-09T06:51:35.292Z,171.33
2019-02-09T06:54:04.806Z,149.33
2019-02-09T06:56:34.446Z,144.03
2019-02-09T06:59:04.867Z,148.37
2019-02-09T07:01:34.502Z,144.60
2019-02-09T07:04:04.593Z,139.67
2019-02-09T07:06:33.923Z,138.87
2019-02-09T07:09:03.271Z,146.70
2019-02-09T07:11:32.556Z,129.17
2019-02-09T07:14:05.045Z,131.17
2019-02-09T07:16:34.411Z,130.07
2019-02-09T07:19:03.865Z,128.17
2019-02-09T07:21:33.388Z,134.43
2019-02-09T07:24:02.713Z,133.33
2019-02-09T07:26:32.039Z,136.30
2019-02-09T07:29:02.106Z,134.80
2019-02-09T07:31:31.426Z,120.30
2019-02-09T07:34:00.837Z,117.13
2019-02-09T07:36:31.927Z,109.00
2019-02-09T07:39:01.252Z,107.03
2019-02-09T07:41:30.560Z,110.77
2019-02-09T07:43:59.959Z,106.47
2019-02-09T07:46:29.275Z,101.93
2019-02-09T07:48:58.667Z,102.80
2019-02-09T07:51:28.122Z,102.37
2019-02-09T07:53:59.043Z,93.17
2019-02-09T07:56:28.411Z,98.40
2019-02-09T07:58:58.223Z,101.20
2019-02-09T08:01:27.634Z,100.40
2019-02-09T08:03:57.483Z,103.73
2019-02-09T08:06:27.307Z,105.13
2019-02-09T08:08:57.167Z,101.07
2019-02-09T08:11:26.480Z,101.40
2019-02-09T08:13:57.978Z,106.00
2019-02-09T08:16:28.029Z,108.67
2019-02-09T08:18:57.417Z,103.07
2019-02-09T08:21:27.295Z,111.57
2019-02-09T08:23:56.653Z,111.10
2019-02-09T08:26:26.989Z,103.73
2019-02-09T08:28:56.392Z,105.30
2019-02-09T08:31:26.762Z,107.53
2019-02-09T08:33:56.829Z,104.40
2019-02-09T08:36:26.770Z,96.67
2019-02-09T08:38:56.151Z,100.80
2019-02-09T08:41:25.698Z,100.93
2019-02-09T08:43:55.012Z,96.63
2019-02-09T08:46:24.325Z,93.47
2019-02-09T08:48:53.715Z,85.27
2019-02-09T08:51:25.543Z,86.77
2019-02-09T08:53:55.270Z,84.77
2019-02-09T08:56:24.984Z,85.87
2019-02-09T08:58:54.450Z,83.63
2019-02-09T09:01:24.028Z,78.87
2019-02-09T09:03:56.316Z,80.60
2019-02-09T09:06:25.995Z,77.00
2019-02-09T09:11:41.352Z,75.57
2019-02-09T09:14:10.714Z,77.07
2019-02-09T09:16:40.463Z,81.30
2019-02-09T09:19:09.888Z,78.03
2019-02-09T09:21:39.305Z,71.87
2019-02-09T09:24:09.142Z,71.60
2019-02-09T09:26:38.565Z,72.53
2019-02-09T09:29:07.963Z,69.97
2019-02-09T09:31:37.497Z,73.33
2019-02-09T09:34:07.382Z,71.57
2019-02-09T09:36:36.894Z,77.67
2019-02-09T09:39:09.569Z,92.27
2019-02-09T09:41:39.336Z,86.50
2019-02-09T09:44:09.054Z,78.87
2019-02-09T09:46:57.855Z,76.73
2019-02-09T09:49:28.012Z,74.40
2019-02-09T09:51:57.607Z,82.77
2019-02-09T09:54:27.121Z,84.77
2019-02-09T09:56:56.517Z,77.00
2019-02-09T09:59:25.965Z,81.13
2019-02-09T10:01:55.335Z,80.03
2019-02-09T10:04:24.638Z,78.83
2019-02-09T10:06:54.059Z,72.03
2019-02-09T10:09:23.459Z,75.67
2019-02-09T10:11:52.943Z,76.80
2019-02-09T10:14:22.259Z,84.47
2019-02-09T10:16:51.672Z,81.20
2019-02-09T10:19:21.025Z,81.30
2019-02-09T10:21:50.327Z,100.40
2019-02-09T10:24:19.643Z,97.63
2019-02-09T10:26:48.972Z,106.97
2019-02-09T10:29:18.298Z,101.90
2019-02-09T10:31:47.655Z,102.23
2019-02-09T10:34:17.032Z,76.20
2019-02-09T10:36:46.354Z,71.83
2019-02-09T10:39:16.783Z,59.43
2019-02-09T10:41:49.188Z,57.57
2019-02-09T10:44:19.807Z,56.57
2019-02-09T10:46:49.679Z,57.63
2019-02-09T10:49:19.910Z,58.10
2019-02-09T10:51:51.464Z,67.93
2019-02-09T10:54:20.834Z,64.90
2019-02-09T10:56:52.294Z,66.93
2019-02-09T10:59:21.727Z,73.30
2019-02-09T11:01:51.014Z,71.37
2019-02-09T11:04:20.386Z,71.27
2019-02-09T11:06:49.727Z,76.33
2019-02-09T11:09:22.666Z,80.10
2019-02-09T11:11:53.718Z,84.73
2019-02-09T11:14:23.049Z,86.13
2019-02-09T11:16:54.787Z,84.07
2019-02-09T11:19:24.052Z,82.43
2019-02-09T11:21:53.505Z,68.60
2019-02-09T11:24:23.219Z,69.53
2019-02-09T11:26:52.566Z,71.10
2019-02-09T11:29:24.946Z,62.60
2019-02-09T11:31:54.175Z,73.63
2019-02-09T11:34:23.652Z,71.23
2019-02-09T11:36:53.216Z,68.53
2019-02-09T11:39:22.631Z,64.57
2019-02-09T11:41:55.258Z,64.20
2019-02-09T11:44:27.455Z,57.83
2019-02-09T11:49:30.749Z,63.57
2019-02-09T11:52:00.506Z,63.57
2019-02-09T11:54:30.091Z,64.20
2019-02-09T11:57:00.362Z,62.47
2019-02-09T11:59:59.005Z,66.60
2019-02-09T12:02:29.562Z,74.07
2019-02-09T12:05:00.986Z,73.33
2019-02-09T12:07:30.399Z,67.73
2019-02-09T12:09:59.709Z,68.90
2019-02-09T12:12:29.138Z,72.33
2019-02-09T12:14:58.564Z,68.93
2019-02-09T12:17:28.127Z,65.63
2019-02-09T12:19:57.579Z,58.87
2019-02-09T12:22:27.423Z,54.03
2019-02-09T12:30:53.502Z,40.73
2019-02-09T12:33:23.551Z,43.23
2019-02-09T12:35:53.475Z,42.50
2019-02-09T12:38:24.849Z,41.90
2019-02-09T12:40:54.789Z,37.67
2019-02-09T12:43:24.483Z,38.10
2019-02-09T12:45:54.299Z,33.87
2019-02-09T12:48:29.529Z,34.37
2019-02-09T12:50:59.135Z,30.13
2019-02-09T12:53:29.027Z,27.63
2019-02-09T12:56:01.013Z,25.60
2019-02-09T12:58:31.403Z,25.03
2019-02-09T13:01:01.036Z,24.27
2019-02-09T13:03:31.678Z,22.83
2019-02-09T13:06:01.539Z,23.83
2019-02-09T13:08:31.066Z,25.07
2019-02-09T13:11:00.600Z,24.60
2019-02-09T13:13:30.877Z,21.57
2019-02-09T13:16:05.547Z,20.17
2019-02-09T13:18:38.535Z,20.83
2019-02-09T13:21:08.546Z,20.40
2019-02-09T13:23:38.463Z,20.60
2019-02-09T13:26:08.190Z,19.00
2019-02-09T13:28:37.843Z,20.97
2019-02-09T13:31:09.627Z,17.63
2019-02-09T13:33:39.408Z,19.80
2019-02-09T13:36:11.008Z,21.27
2019-02-09T13:38:40.957Z,20.30
2019-02-09T13:41:10.886Z,20.13
2019-02-09T13:43:40.750Z,22.60
2019-02-09T13:46:10.276Z,22.23
2019-02-09T13:48:40.014Z,19.50
2019-02-09T13:51:10.265Z,18.97
2019-02-09T13:53:42.251Z,18.97
2019-02-09T13:56:21.157Z,18.73
2019-02-09T13:58:54.734Z,18.47
2019-02-09T14:01:24.549Z,19.17
2019-02-09T14:03:57.137Z,20.20
2019-02-09T14:06:27.807Z,19.23
2019-02-09T14:09:01.990Z,23.63
2019-02-09T14:11:34.203Z,27.33
2019-02-09T14:14:03.968Z,28.83
2019-02-09T14:16:38.651Z,28.80
2019-02-09T14:19:05.731Z,28.57
2019-02-09T14:21:35.542Z,28.13
2019-02-09T14:24:06.805Z,27.90
2019-02-09T14:26:40.178Z,26.10
2019-02-09T14:29:15.147Z,23.33
2019-02-09T14:31:44.740Z,20.23
2019-02-09T14:34:14.523Z,17.33
2019-02-09T14:36:47.089Z,25.60
2019-02-09T14:39:17.276Z,24.07
2019-02-09T14:41:51.998Z,21.90
2019-02-09T14:44:21.852Z,25.13
2019-02-09T14:46:52.211Z,24.90
2019-02-09T14:49:21.980Z,24.40
2019-02-09T14:51:51.904Z,31.73
2019-02-09T14:54:26.168Z,55.23
2019-02-09T14:56:57.150Z,62.67
2019-02-09T14:59:27.286Z,76.00
2019-02-09T15:01:57.921Z,59.23
2019-02-09T15:04:27.594Z,41.07
2019-02-09T15:06:57.289Z,41.03
2019-02-09T15:09:26.702Z,35.40
2019-02-09T15:11:56.585Z,35.83
2019-02-09T15:14:30.399Z,26.70
2019-02-09T15:17:05.525Z,27.23
2019-02-09T15:19:43.538Z,28.87
2019-02-09T15:22:14.040Z,25.67
2019-02-09T15:24:43.932Z,28.70
2019-02-09T15:27:13.855Z,33.40
2019-02-09T15:29:44.080Z,28.50
2019-02-09T15:32:13.514Z,34.57
2019-02-09T15:34:45.026Z,35.77
2019-02-09T15:37:16.319Z,32.47
2019-02-09T15:39:47.639Z,35.20
2019-02-09T15:42:20.603Z,32.10
2019-02-09T15:44:50.284Z,34.40
2019-02-09T15:47:21.047Z,32.57
2019-02-09T15:49:52.839Z,33.20
2019-02-09T15:52:22.795Z,39.47
2019-02-09T15:54:52.398Z,36.93
2019-02-09T15:57:22.489Z,39.13
2019-02-09T15:59:53.009Z,38.07
2019-02-09T16:02:22.683Z,31.60
2019-02-09T16:04:52.516Z,32.30
2019-02-09T16:07:22.895Z,34.20
2019-02-09T16:09:54.623Z,40.73
2019-02-09T16:12:24.493Z,49.73
2019-02-09T16:14:54.382Z,54.30
2019-02-09T16:17:24.227Z,55.00
2019-02-09T16:19:58.353Z,46.93
2019-02-09T16:22:28.845Z,45.57
2019-02-09T16:27:44.037Z,44.87
2019-02-09T16:30:20.092Z,48.73
2019-02-09T16:32:49.856Z,49.33
2019-02-09T16:35:20.751Z,53.57
2019-02-09T16:37:50.403Z,54.37
2019-02-09T16:40:24.961Z,47.73
2019-02-09T16:42:54.681Z,46.67
2019-02-09T16:45:31.674Z,49.20
2019-02-09T16:48:01.714Z,45.37
2019-02-09T16:50:31.642Z,47.50
2019-02-09T16:53:01.290Z,47.83
2019-02-09T16:55:31.066Z,48.90
2019-02-09T16:58:00.567Z,43.23
2019-02-09T17:00:33.299Z,48.80
2019-02-09T17:03:02.984Z,53.27
2019-02-09T17:05:32.610Z,56.27
2019-02-09T17:08:02.051Z,51.23
2019-02-09T17:10:31.943Z,53.37
2019-02-09T17:13:09.071Z,57.53
2019-02-09T17:15:39.271Z,53.93
2019-02-09T17:22:25.969Z,52.03
2019-02-09T17:24:55.474Z,55.60
2019-02-09T17:27:25.224Z,64.23
2019-02-09T17:29:54.852Z,65.93
2019-02-09T17:32:24.325Z,75.13
2019-02-09T17:34:53.840Z,81.73
2019-02-09T17:37:23.425Z,83.97
2019-02-09T17:39:53.835Z,92.33
2019-02-09T17:42:25.986Z,88.97
2019-02-09T17:44:55.673Z,80.73
2019-02-09T17:47:26.807Z,73.23
2019-02-09T17:49:59.640Z,71.60
2019-02-09T17:52:33.136Z,73.83
2019-02-09T17:55:05.003Z,81.30
2019-02-09T17:57:34.807Z,86.03
2019-02-09T18:00:05.443Z,95.37
2019-02-09T18:02:41.886Z,96.70
2019-02-09T18:05:12.359Z,88.73
2019-02-09T18:07:44.387Z,90.73
2019-02-09T18:10:15.520Z,88.63
2019-02-09T18:12:47.099Z,85.47
2019-02-09T18:15:17.526Z,82.70
2019-02-09T18:17:54.661Z,81.40
2019-02-09T18:20:27.912Z,87.70
2019-02-09T18:23:00.611Z,94.50
2019-02-09T18:25:46.681Z,105.27
2019-02-09T18:28:21.042Z,116.43
2019-02-09T18:31:01.745Z,111.00
2019-02-09T18:33:35.664Z,109.53
2019-02-09T18:36:05.926Z,94.83
2019-02-09T18:38:38.412Z,96.37
2019-02-09T18:41:10.688Z,95.83
2019-02-09T18:43:41.117Z,90.90
2019-02-09T18:46:11.742Z,93.73
2019-02-09T18:48:41.970Z,94.53
2019-02-09T18:51:11.404Z,104.43
2019-02-09T18:53:40.822Z,105.17
2019-02-09T18:56:10.169Z,100.90
2019-02-09T18:58:39.454Z,101.43
2019-02-09T19:01:08.877Z,112.83
2019-02-09T19:03:38.267Z,117.60
2019-02-09T19:06:07.602Z,122.27
2019-02-09T19:08:39.103Z,101.57
2019-02-09T19:11:08.438Z,104.17
2019-02-09T19:13:37.805Z,111.70
2019-02-09T19:16:07.977Z,98.70
2019-02-09T19:18:38.057Z,90.73
2019-02-09T19:21:12.319Z,93.20
2019-02-09T19:23:41.635Z,100.80
2019-02-09T19:26:11.483Z,98.17
2019-02-09T19:28:40.885Z,97.73
2019-02-09T19:31:10.292Z,208.50
2019-02-09T19:33:39.595Z,188.20
2019-02-09T19:36:09.175Z,169.23
2019-02-09T19:38:38.487Z,171.97
2019-02-09T19:41:07.847Z,155.70
2019-02-09T19:43:37.960Z,145.97
2019-02-09T19:46:08.624Z,152.00
2019-02-09T19:48:38.983Z,150.90
2019-02-09T19:51:08.873Z,144.07
2019-02-09T19:53:38.216Z,152.33
2019-02-09T19:56:07.972Z,163.20
2019-02-09T19:58:37.446Z,164.37
2019-02-09T20:01:06.902Z,161.60
2019-02-09T20:03:36.211Z,145.47
2019-02-09T20:06:08.019Z,141.63
2019-02-09T20:08:37.755Z,129.67
2019-02-09T20:11:07.589Z,124.00
2019-02-09T20:13:36.847Z,105.73
2019-02-09T20:16:06.144Z,92.47
2019-02-09T20:18:35.563Z,84.53
2019-02-09T20:21:04.880Z,80.13
2019-02-09T20:23:35.599Z,88.67
2019-02-09T20:26:05.017Z,96.60
2019-02-09T20:28:34.274Z,99.83
2019-02-09T20:31:04.121Z,107.80
2019-02-09T20:33:33.448Z,129.30
2019-02-09T20:36:02.823Z,135.50
2019-02-09T20:38:32.084Z,147.90
2019-02-09T20:41:04.478Z,141.83
2019-02-09T20:43:33.775Z,130.50
2019-02-09T20:46:03.389Z,129.93
2019-02-09T20:48:34.550Z,137.83
2019-02-09T20:51:04.163Z,145.53
2019-02-09T20:53:33.586Z,147.40
2019-02-09T20:56:04.706Z,138.33
2019-02-09T20:58:34.067Z,138.97
2019-02-09T21:01:03.429Z,140.10
2019-02-09T21:03:32.900Z,131.97
2019-02-09T21:06:02.239Z,134.73
2019-02-09T21:08:31.881Z,127.93
2019-02-09T21:11:01.179Z,124.10
2019-02-09T21:13:30.616Z,119.97
2019-02-09T21:15:59.936Z,120.10
2019-02-09T21:18:29.619Z,128.77
2019-02-09T21:20:58.963Z,126.63
2019-02-09T21:23:28.436Z,127.27
2019-02-09T21:25:59.464Z,161.20
2019-02-09T21:28:28.963Z,151.63
2019-02-09T21:30:58.903Z,137.23
2019-02-09T21:33:28.332Z,134.33
2019-02-09T21:35:57.742Z,136.77
2019-02-09T21:38:27.499Z,127.83
2019-02-09T21:40:56.802Z,115.43
2019-02-09T21:43:26.098Z,102.70
2019-02-09T21:45:55.459Z,104.23
2019-02-09T21:48:24.828Z,94.50
2019-02-09T21:50:54.175Z,89.10
2019-02-09T21:53:23.523Z,81.63
2019-02-09T21:55:53.117Z,80.50
2019-02-09T21:58:23.588Z,82.63
2019-02-09T22:00:53.077Z,76.90
2019-02-09T22:03:24.107Z,82.00
2019-02-09T22:05:53.927Z,82.73
2019-02-09T22:08:23.473Z,82.70
2019-02-09T22:10:53.117Z,87.67
2019-02-09T22:13:23.191Z,80.87
2019-02-09T22:15:52.560Z,85.37
2019-02-09T22:18:22.024Z,87.53
2019-02-09T22:20:52.734Z,81.90
2019-02-09T22:23:22.516Z,81.00
2019-02-09T22:25:51.862Z,76.83
2019-02-09T22:28:21.504Z,79.80
2019-02-09T22:30:50.894Z,81.13
2019-02-09T22:33:24.594Z,82.50
2019-02-09T22:35:58.734Z,81.23
2019-02-09T22:38:25.363Z,80.43
2019-02-09T22:40:54.684Z,84.03
2019-02-09T22:43:24.050Z,76.00
2019-02-09T22:45:53.380Z,74.23
2019-02-09T22:48:22.768Z,74.47
2019-02-09T22:50:52.067Z,73.57
2019-02-09T22:53:23.135Z,67.97
2019-02-09T22:55:52.731Z,71.70
2019-02-09T22:58:22.123Z,71.87
2019-02-09T23:01:09.441Z,62.40
2019-02-09T23:03:45.702Z,69.00
2019-02-09T23:06:42.857Z,58.27
2019-02-09T23:09:16.003Z,58.57
2019-02-09T23:11:45.325Z,64.30
2019-02-09T23:14:14.758Z,60.13
2019-02-09T23:16:44.175Z,56.93
2019-02-09T23:19:13.533Z,57.90
2019-02-09T23:21:43.162Z,63.27
2019-02-09T23:24:12.442Z,62.63
2019-02-09T23:26:41.900Z,56.30
2019-02-09T23:29:11.259Z,57.63
2019-02-09T23:31:40.752Z,60.63
2019-02-09T23:34:10.076Z,58.83
2019-02-09T23:36:39.456Z,58.47
2019-02-09T23:39:08.842Z,58.63
2019-02-09T23:41:38.297Z,54.77
2019-02-09T23:44:07.690Z,61.37
2019-02-09T23:46:37.035Z,55.63
2019-02-09T23:49:06.764Z,57.67
2019-02-09T23:51:36.682Z,57.83
2019-02-09T23:54:06.014Z,59.40
2019-02-09T23:56:35.401Z,59.47
2019-02-09T23:59:04.770Z,62.50
